createdAt,value
2022-09-25T00:00:44.585Z,87.43
2022-09-25T00:05:47.119Z,86.93
2022-09-25T00:10:50.683Z,85.50
2022-09-25T00:15:56.175Z,84.97
2022-09-25T00:21:01.569Z,85.83
2022-09-25T00:26:05.951Z,85.14
2022-09-25T00:31:08.289Z,84.47
2022-09-25T00:36:10.522Z,83.90
2022-09-25T00:41:12.268Z,84.75
2022-09-25T00:46:20.078Z,85.35
2022-09-25T00:51:28.146Z,87.22
2022-09-25T00:56:34.838Z,87.43
2022-09-25T01:01:36.441Z,85.33
2022-09-25T01:06:38.119Z,85.84
2022-09-25T01:11:39.639Z,84.94
2022-09-25T01:16:56.268Z,84.15
2022-09-25T01:22:06.861Z,84.35
2022-09-25T01:27:30.787Z,83.34
2022-09-25T01:33:03.405Z,85.06
2022-09-25T01:38:39.626Z,84.77
2022-09-25T01:44:33.764Z,85.06
2022-09-25T01:49:45.778Z,85.25
2022-09-25T01:54:54.315Z,86.08
2022-09-25T01:59:59.872Z,86.09
2022-09-25T02:05:05.726Z,85.40
2022-09-25T02:10:46.754Z,86.72
2022-09-25T02:15:55.586Z,84.51
2022-09-25T02:21:16.601Z,83.58
2022-09-25T02:26:25.027Z,83.84
2022-09-25T02:31:35.663Z,85.28
2022-09-25T02:36:37.310Z,86.43
2022-09-25T02:42:04.564Z,84.05
2022-09-25T02:47:08.766Z,84.91
2022-09-25T02:52:26.704Z,83.50
2022-09-25T02:58:02.655Z,84.01
2022-09-25T03:03:06.180Z,83.71
2022-09-25T03:08:26.492Z,84.71
2022-09-25T03:13:33.154Z,86.21
2022-09-25T03:18:34.731Z,85.90
2022-09-25T03:23:36.293Z,85.70
2022-09-25T03:28:37.812Z,86.14
2022-09-25T03:33:42.544Z,86.00
2022-09-25T03:38:45.864Z,87.01
2022-09-25T03:43:51.211Z,86.57
2022-09-25T03:48:53.526Z,85.32
2022-09-25T03:53:55.391Z,84.94
2022-09-25T03:58:57.471Z,84.08
2022-09-25T04:04:01.092Z,83.58
2022-09-25T04:09:02.594Z,85.29
2022-09-25T04:14:04.878Z,86.56
2022-09-25T04:19:06.935Z,87.00
2022-09-25T04:24:27.004Z,85.91
2022-09-25T04:29:29.062Z,84.56
2022-09-25T04:34:30.914Z,84.05
2022-09-25T04:39:32.420Z,85.46
2022-09-25T04:44:33.944Z,84.32
2022-09-25T04:49:36.335Z,83.32
2022-09-25T04:54:37.850Z,83.13
2022-09-25T04:59:39.434Z,84.24
2022-09-25T05:04:41.167Z,84.38
2022-09-25T05:09:42.672Z,85.01
2022-09-25T05:14:44.217Z,84.85
2022-09-25T05:19:45.719Z,84.71
2022-09-25T05:24:47.242Z,85.56
2022-09-25T05:29:49.562Z,86.01
2022-09-25T05:34:51.078Z,85.99
2022-09-25T05:39:52.682Z,85.77
2022-09-25T05:44:54.175Z,84.73
2022-09-25T05:49:55.725Z,84.37
2022-09-25T05:54:57.357Z,85.07
2022-09-25T05:59:59.230Z,85.87
2022-09-25T06:05:00.753Z,85.32
2022-09-25T06:10:02.409Z,85.90
2022-09-25T06:15:04.275Z,85.29
2022-09-25T06:20:06.188Z,86.24
2022-09-25T06:25:08.224Z,84.83
2022-09-25T06:30:10.078Z,84.66
2022-09-25T06:35:11.596Z,84.33
2022-09-25T06:40:13.210Z,83.32
2022-09-25T06:45:14.838Z,83.62
2022-09-25T06:50:16.460Z,84.23
2022-09-25T06:55:17.982Z,83.12
2022-09-25T07:00:19.609Z,83.66
2022-09-25T07:05:21.124Z,83.66
2022-09-25T07:10:22.673Z,83.29
2022-09-25T07:15:24.209Z,84.27
2022-09-25T07:20:25.776Z,82.90
2022-09-25T07:25:27.387Z,82.98
2022-09-25T07:30:29.592Z,82.00
2022-09-25T07:35:31.129Z,83.23
2022-09-25T07:40:35.430Z,83.95
2022-09-25T07:45:37.202Z,82.55
2022-09-25T07:50:38.785Z,82.71
2022-09-25T07:55:41.173Z,82.48
2022-09-25T08:00:43.492Z,81.89
2022-09-25T08:05:45.070Z,80.13
2022-09-25T08:10:46.612Z,79.61
2022-09-25T08:15:48.824Z,79.38
2022-09-25T08:20:50.478Z,79.30
2022-09-25T08:25:52.028Z,79.17
2022-09-25T08:30:54.214Z,78.90
2022-09-25T08:36:01.161Z,79.21
2022-09-25T08:41:09.465Z,78.37
2022-09-25T08:46:59.891Z,78.15
2022-09-25T08:52:05.115Z,78.01
2022-09-25T08:57:25.027Z,78.08
2022-09-25T09:02:35.772Z,78.16
2022-09-25T09:07:43.696Z,77.64
2022-09-25T09:12:48.040Z,78.17
2022-09-25T09:17:49.567Z,77.57
2022-09-25T09:22:52.814Z,77.75
2022-09-25T09:28:07.044Z,77.47
2022-09-25T09:33:20.746Z,77.69
2022-09-25T09:38:32.587Z,77.68
2022-09-25T09:43:58.719Z,77.49
2022-09-25T09:49:24.504Z,76.50
2022-09-25T09:54:35.729Z,75.48
2022-09-25T09:59:44.965Z,74.26
2022-09-25T10:04:47.063Z,74.71
2022-09-25T10:09:53.325Z,74.75
2022-09-25T10:14:55.489Z,74.21
2022-09-25T10:20:03.870Z,73.69
2022-09-25T10:25:06.569Z,73.33
2022-09-25T10:30:11.019Z,71.86
2022-09-25T10:35:21.405Z,72.07
2022-09-25T10:40:30.941Z,70.89
2022-09-25T10:45:33.774Z,69.76
2022-09-25T10:50:36.980Z,68.07
2022-09-25T10:55:43.895Z,66.55
2022-09-25T11:00:54.549Z,66.51
2022-09-25T11:06:21.039Z,64.53
2022-09-25T11:11:26.842Z,63.06
2022-09-25T11:16:48.705Z,60.91
2022-09-25T11:22:14.406Z,60.15
2022-09-25T11:27:21.678Z,61.11
2022-09-25T11:32:42.732Z,58.23
2022-09-25T11:38:41.822Z,57.76
2022-09-25T11:44:05.283Z,57.63
2022-09-25T11:49:19.366Z,57.03
2022-09-25T11:54:39.346Z,55.34
2022-09-25T11:59:47.036Z,55.82
2022-09-25T12:05:04.063Z,55.58
2022-09-25T12:10:24.677Z,55.71
2022-09-25T12:15:46.579Z,56.83
2022-09-25T12:21:05.952Z,57.47
2022-09-25T12:26:30.868Z,57.25
2022-09-25T12:32:00.580Z,57.54
2022-09-25T12:37:43.424Z,60.26
2022-09-25T12:42:52.560Z,62.00
2022-09-25T12:48:05.155Z,62.01
2022-09-25T12:53:30.624Z,62.98
2022-09-25T12:58:44.339Z,60.78
2022-09-25T13:04:10.925Z,59.39
2022-09-25T13:09:18.362Z,60.06
2022-09-25T13:14:28.339Z,59.98
2022-09-25T13:19:34.252Z,58.68
2022-09-25T13:24:44.504Z,59.57
2022-09-25T13:29:54.152Z,60.58
2022-09-25T13:34:58.547Z,59.94
2022-09-25T13:40:19.342Z,60.55
2022-09-25T13:45:32.402Z,58.59
2022-09-25T13:50:36.251Z,58.29
2022-09-25T13:55:42.238Z,58.33
2022-09-25T14:01:02.882Z,58.55
2022-09-25T14:06:07.565Z,58.90
2022-09-25T14:11:12.633Z,59.08
2022-09-25T14:16:25.930Z,59.25
2022-09-25T14:21:28.551Z,59.35
2022-09-25T14:26:30.125Z,59.08
2022-09-25T14:31:50.213Z,59.10
2022-09-25T14:37:05.115Z,58.60
2022-09-25T14:42:53.157Z,58.68
2022-09-25T14:47:57.570Z,58.27
2022-09-25T14:53:01.250Z,58.78
2022-09-25T14:58:03.222Z,58.25
2022-09-25T15:03:04.839Z,59.15
2022-09-25T15:08:30.942Z,59.40
2022-09-25T15:13:33.666Z,58.46
2022-09-25T15:18:39.860Z,58.74
2022-09-25T15:23:44.000Z,58.89
2022-09-25T15:28:45.855Z,58.37
2022-09-25T15:34:02.655Z,58.87
2022-09-25T15:39:13.775Z,58.69
2022-09-25T15:44:22.654Z,59.07
2022-09-25T15:49:28.080Z,59.31
2022-09-25T15:54:44.218Z,61.02
2022-09-25T16:00:07.667Z,62.03
2022-09-25T16:05:10.492Z,62.55
2022-09-25T16:10:17.962Z,61.25
2022-09-25T16:15:36.308Z,63.97
2022-09-25T16:20:39.613Z,64.84
2022-09-25T16:25:44.684Z,65.73
2022-09-25T16:31:07.881Z,66.10
2022-09-25T16:36:17.760Z,66.03
2022-09-25T16:41:22.100Z,66.54
2022-09-25T16:46:24.014Z,67.02
2022-09-25T16:51:30.025Z,68.27
2022-09-25T16:56:32.521Z,69.40
2022-09-25T17:01:34.282Z,69.67
2022-09-25T17:06:40.751Z,69.47
2022-09-25T17:11:44.976Z,70.26
2022-09-25T17:16:46.502Z,71.32
2022-09-25T17:21:53.060Z,71.87
2022-09-25T17:26:54.744Z,72.39
2022-09-25T17:31:56.267Z,73.08
2022-09-25T17:36:57.986Z,74.35
2022-09-25T17:42:02.935Z,73.99
2022-09-25T17:47:06.052Z,76.70
2022-09-25T17:52:09.494Z,76.13
2022-09-25T17:57:11.005Z,75.93
2022-09-25T18:02:15.252Z,76.12
2022-09-25T18:07:16.930Z,76.49
2022-09-25T18:12:18.469Z,77.37
2022-09-25T18:17:19.993Z,78.55
2022-09-25T18:22:25.242Z,79.38
2022-09-25T18:27:29.807Z,80.34
2022-09-25T18:32:31.666Z,79.60
2022-09-25T18:37:33.266Z,79.37
2022-09-25T18:42:34.801Z,78.95
2022-09-25T18:47:36.388Z,79.85
2022-09-25T18:52:38.180Z,80.01
2022-09-25T18:57:40.722Z,80.64
2022-09-25T19:02:43.287Z,80.92
2022-09-25T19:07:45.062Z,80.95
2022-09-25T19:12:47.010Z,80.40
2022-09-25T19:17:48.599Z,80.46
2022-09-25T19:22:50.761Z,80.28
2022-09-25T19:27:52.345Z,81.32
2022-09-25T19:32:53.863Z,81.67
2022-09-25T19:37:55.402Z,82.91
2022-09-25T19:42:57.953Z,83.90
2022-09-25T19:48:00.169Z,83.65
2022-09-25T19:53:01.974Z,82.59
2022-09-25T19:58:04.465Z,83.94
2022-09-25T20:03:06.085Z,85.68
2022-09-25T20:08:08.164Z,84.22
2022-09-25T20:13:10.246Z,84.32
2022-09-25T20:18:11.768Z,84.19
2022-09-25T20:23:13.344Z,84.36
2022-09-25T20:28:14.926Z,84.63
2022-09-25T20:33:17.261Z,85.49
2022-09-25T20:38:18.794Z,86.03
2022-09-25T20:43:21.588Z,84.75
2022-09-25T20:48:24.400Z,86.64
2022-09-25T20:53:27.792Z,85.63
2022-09-25T20:58:29.507Z,85.15
2022-09-25T21:03:35.878Z,84.73
2022-09-25T21:08:37.599Z,86.26
2022-09-25T21:13:40.360Z,88.09
2022-09-25T21:18:42.256Z,87.99
2022-09-25T21:23:48.263Z,87.55
2022-09-25T21:28:51.621Z,86.13
2022-09-25T21:33:54.395Z,87.88
2022-09-25T21:38:56.371Z,88.86
2022-09-25T21:44:04.154Z,87.85
2022-09-25T21:49:06.655Z,87.51
2022-09-25T21:54:10.139Z,88.01
2022-09-25T21:59:12.200Z,89.11
2022-09-25T22:04:15.282Z,89.70
2022-09-25T22:09:23.202Z,90.30
2022-09-25T22:14:24.769Z,89.57
2022-09-25T22:19:28.367Z,90.61
2022-09-25T22:24:29.964Z,89.16
2022-09-25T22:29:31.832Z,89.97
2022-09-25T22:34:33.373Z,89.91
2022-09-25T22:39:34.928Z,89.94
2022-09-25T22:44:36.451Z,89.66
2022-09-25T22:49:38.001Z,88.69
2022-09-25T22:54:39.619Z,87.80
2022-09-25T22:59:41.168Z,88.42
2022-09-25T23:04:44.814Z,88.06
2022-09-25T23:09:46.405Z,88.22
2022-09-25T23:14:47.925Z,88.28
2022-09-25T23:19:49.459Z,87.53
2022-09-25T23:24:50.981Z,87.25
2022-09-25T23:29:52.555Z,87.33
2022-09-25T23:34:54.107Z,87.91
2022-09-25T23:39:55.904Z,87.48
2022-09-25T23:44:57.889Z,87.68
2022-09-25T23:50:04.177Z,87.14
2022-09-25T23:55:06.622Z,87.59
